Flugplatz Plettenberg-Hüinghausen (EDKP)

Hier findest Du alle Informationen zum Flugplatz Plettenberg-Hüinghausen (EDKP).

Informationen für Piloten zum Flugplatz Plettenberg-Hüinghausen

Hier findest Du alle relevanten Informationen, die Du als Pilot benötigst, um Plettenberg-Hüinghausen anzufliegen.

Flugplatz: Plettenberg-Hüinghausen ICAO-Code: EDKP
Frequenz Turm: 122,925 Mhz GAFOR Gebiet: 36
Frequenz Ground: 122,925 Mhz Mogas: nein
Platzrunde: N/S 2000 ft Landegebühr: -
Platzhöhe: 980 ft Sunrise: 04:28 Uhr UTC
Pisten: 11/29 - 430 m x 30 m, GRAS Sunset: 18:28 Uhr UTC

Mitglieder, die in Plettenberg-Hüinghausen fliegen

Flugwetter am Flugplatz Plettenberg-Hüinghausen

Die METAR Information stammen aus EDLW (38.34 km entfernt).

METAR Code:
2024/04/15 18:50
EDLW 151850Z 23018KT 9999 -SHRA VCTS SCT019CB 06/03 Q1002

Flugschulen am Flugplatz Plettenberg-Hüinghausen

Am Flugplatz Plettenberg-Hüinghausen gibt es eine Flugschule.

Benachbarte Flugplätze und Flugschulen

Es gibt 21 weitere Flugplätze in einem Umkreis von 50 km um den Flugplatz Plettenberg-Hüinghausen.

Jetzt anmelden

Passwort vergessen

Umfrage Archiv

Wie häufig haltet Ihr die Halbkreisflugregel ein?

Eher häufig!
34.5 %
Immer!
32.4 %
Hin und wieder!
16.4 %
Nie!
9.2 %
Eher selten!
7.6 %
Stimmen: 238 | Diskussion
Anzeige: Roland Aircraft
Statistik Alle Mitglieder

Aktuell sind 29 Besucher online, davon 3 Mitglieder und 26 Gäste.


Mitglieder online:
Steffen_E  Heli  raller 

Anzeige: EasyVFR